sensor_id;sensor_type;location;lat;lon;timestamp;P1;durP1;ratioP1;P2;durP2;ratioP2
77581;SDS011;66726;52.388;9.986;2023-02-15T00:00:13;22.45;;;20.17;;
77581;SDS011;66726;52.388;9.986;2023-02-15T00:02:44;23.42;;;21.02;;
77581;SDS011;66726;52.388;9.986;2023-02-15T00:05:13;22.65;;;20.35;;
77581;SDS011;66726;52.388;9.986;2023-02-15T00:07:42;21.83;;;19.70;;
77581;SDS011;66726;52.388;9.986;2023-02-15T00:10:10;24.38;;;21.77;;
77581;SDS011;66726;52.388;9.986;2023-02-15T00:12:38;22.75;;;20.45;;
77581;SDS011;66726;52.388;9.986;2023-02-15T00:15:06;22.52;;;20.23;;
77581;SDS011;66726;52.388;9.986;2023-02-15T00:17:35;22.48;;;20.27;;
77581;SDS011;66726;52.388;9.986;2023-02-15T00:20:03;22.48;;;20.08;;
77581;SDS011;66726;52.388;9.986;2023-02-15T00:22:34;21.92;;;19.73;;
77581;SDS011;66726;52.388;9.986;2023-02-15T00:25:03;21.92;;;19.63;;
77581;SDS011;66726;52.388;9.986;2023-02-15T00:27:32;23.48;;;21.00;;
77581;SDS011;66726;52.388;9.986;2023-02-15T00:30:00;23.27;;;20.85;;
77581;SDS011;66726;52.388;9.986;2023-02-15T00:32:29;24.60;;;22.00;;
77581;SDS011;66726;52.388;9.986;2023-02-15T00:34:57;23.92;;;21.48;;
77581;SDS011;66726;52.388;9.986;2023-02-15T00:37:25;24.65;;;22.05;;
77581;SDS011;66726;52.388;9.986;2023-02-15T00:39:54;25.10;;;22.40;;
77581;SDS011;66726;52.388;9.986;2023-02-15T00:42:23;25.08;;;22.38;;
77581;SDS011;66726;52.388;9.986;2023-02-15T00:44:51;25.23;;;22.52;;
77581;SDS011;66726;52.388;9.986;2023-02-15T00:47:19;24.77;;;22.25;;
77581;SDS011;66726;52.388;9.986;2023-02-15T00:49:47;25.27;;;22.58;;
77581;SDS011;66726;52.388;9.986;2023-02-15T00:52:15;24.92;;;22.33;;
77581;SDS011;66726;52.388;9.986;2023-02-15T00:54:43;25.98;;;23.27;;
77581;SDS011;66726;52.388;9.986;2023-02-15T00:57:12;26.13;;;23.33;;
77581;SDS011;66726;52.388;9.986;2023-02-15T00:59:41;25.77;;;23.08;;
77581;SDS011;66726;52.388;9.986;2023-02-15T01:02:09;27.48;;;23.85;;
77581;SDS011;66726;52.388;9.986;2023-02-15T01:04:40;23.95;;;21.35;;
77581;SDS011;66726;52.388;9.986;2023-02-15T01:07:08;21.65;;;19.45;;
77581;SDS011;66726;52.388;9.986;2023-02-15T01:09:36;22.23;;;19.92;;
77581;SDS011;66726;52.388;9.986;2023-02-15T01:12:04;21.60;;;19.42;;
77581;SDS011;66726;52.388;9.986;2023-02-15T01:14:33;22.00;;;19.70;;
77581;SDS011;66726;52.388;9.986;2023-02-15T01:17:01;23.20;;;20.80;;
77581;SDS011;66726;52.388;9.986;2023-02-15T01:19:30;22.98;;;20.58;;
77581;SDS011;66726;52.388;9.986;2023-02-15T01:21:58;21.95;;;19.75;;
77581;SDS011;66726;52.388;9.986;2023-02-15T01:24:26;22.08;;;19.75;;
77581;SDS011;66726;52.388;9.986;2023-02-15T01:26:54;21.90;;;19.67;;
77581;SDS011;66726;52.388;9.986;2023-02-15T01:29:22;22.98;;;20.65;;
77581;SDS011;66726;52.388;9.986;2023-02-15T01:31:52;22.20;;;20.00;;
77581;SDS011;66726;52.388;9.986;2023-02-15T01:34:20;22.70;;;20.42;;
77581;SDS011;66726;52.388;9.986;2023-02-15T01:36:48;22.43;;;20.23;;
77581;SDS011;66726;52.388;9.986;2023-02-15T01:39:16;21.58;;;19.50;;
77581;SDS011;66726;52.388;9.986;2023-02-15T01:41:45;20.73;;;18.73;;
77581;SDS011;66726;52.388;9.986;2023-02-15T01:47:22;18.88;;;16.98;;
77581;SDS011;66726;52.388;9.986;2023-02-15T01:50:02;19.90;;;17.90;;
77581;SDS011;66726;52.388;9.986;2023-02-15T01:52:38;22.40;;;20.10;;
77581;SDS011;66726;52.388;9.986;2023-02-15T01:55:12;22.30;;;19.67;;
77581;SDS011;66726;52.388;9.986;2023-02-15T01:57:42;23.15;;;20.80;;
77581;SDS011;66726;52.388;9.986;2023-02-15T02:00:14;21.13;;;18.92;;
77581;SDS011;66726;52.388;9.986;2023-02-15T02:02:45;22.60;;;20.15;;
77581;SDS011;66726;52.388;9.986;2023-02-15T02:05:20;22.38;;;20.02;;
77581;SDS011;66726;52.388;9.986;2023-02-15T02:07:48;20.45;;;18.35;;
77581;SDS011;66726;52.388;9.986;2023-02-15T02:10:22;20.33;;;18.25;;
77581;SDS011;66726;52.388;9.986;2023-02-15T02:12:52;20.02;;;17.92;;
77581;SDS011;66726;52.388;9.986;2023-02-15T02:15:27;20.00;;;17.90;;
77581;SDS011;66726;52.388;9.986;2023-02-15T02:18:14;20.07;;;17.97;;
77581;SDS011;66726;52.388;9.986;2023-02-15T02:24:40;19.98;;;17.88;;
77581;SDS011;66726;52.388;9.986;2023-02-15T02:27:46;19.98;;;17.88;;
77581;SDS011;66726;52.388;9.986;2023-02-15T02:33:45;18.95;;;16.95;;
77581;SDS011;66726;52.388;9.986;2023-02-15T02:36:31;18.58;;;16.65;;
77581;SDS011;66726;52.388;9.986;2023-02-15T02:39:13;18.95;;;17.05;;
77581;SDS011;66726;52.388;9.986;2023-02-15T02:41:59;18.20;;;16.38;;
77581;SDS011;66726;52.388;9.986;2023-02-15T02:44:38;18.40;;;16.50;;
77581;SDS011;66726;52.388;9.986;2023-02-15T02:47:11;18.63;;;16.67;;
77581;SDS011;66726;52.388;9.986;2023-02-15T02:49:51;17.77;;;15.75;;
77581;SDS011;66726;52.388;9.986;2023-02-15T02:52:38;17.98;;;16.08;;
77581;SDS011;66726;52.388;9.986;2023-02-15T02:55:11;17.97;;;16.10;;
77581;SDS011;66726;52.388;9.986;2023-02-15T02:57:46;18.30;;;16.40;;
77581;SDS011;66726;52.388;9.986;2023-02-15T03:00:21;18.10;;;16.20;;
77581;SDS011;66726;52.388;9.986;2023-02-15T03:02:54;18.38;;;16.48;;
77581;SDS011;66726;52.388;9.986;2023-02-15T03:05:32;18.95;;;16.95;;
77581;SDS011;66726;52.388;9.986;2023-02-15T03:08:04;19.27;;;17.00;;
77581;SDS011;66726;52.388;9.986;2023-02-15T03:10:36;19.73;;;17.42;;
77581;SDS011;66726;52.388;9.986;2023-02-15T03:13:07;19.10;;;17.10;;
77581;SDS011;66726;52.388;9.986;2023-02-15T03:15:36;18.55;;;16.55;;
77581;SDS011;66726;52.388;9.986;2023-02-15T03:18:28;17.70;;;15.90;;
77581;SDS011;66726;52.388;9.986;2023-02-15T03:21:04;17.95;;;16.05;;
77581;SDS011;66726;52.388;9.986;2023-02-15T03:23:48;18.67;;;16.20;;
77581;SDS011;66726;52.388;9.986;2023-02-15T03:26:28;17.38;;;15.57;;
77581;SDS011;66726;52.388;9.986;2023-02-15T03:28:59;18.15;;;16.25;;
77581;SDS011;66726;52.388;9.986;2023-02-15T03:31:31;18.85;;;16.35;;
77581;SDS011;66726;52.388;9.986;2023-02-15T03:34:06;17.45;;;15.65;;
77581;SDS011;66726;52.388;9.986;2023-02-15T03:36:41;16.77;;;15.07;;
77581;SDS011;66726;52.388;9.986;2023-02-15T03:39:18;20.02;;;17.40;;
77581;SDS011;66726;52.388;9.986;2023-02-15T03:41:55;18.80;;;16.80;;
77581;SDS011;66726;52.388;9.986;2023-02-15T03:44:31;18.20;;;16.30;;
77581;SDS011;66726;52.388;9.986;2023-02-15T03:47:11;17.42;;;15.57;;
77581;SDS011;66726;52.388;9.986;2023-02-15T03:49:46;17.80;;;15.90;;
77581;SDS011;66726;52.388;9.986;2023-02-15T03:52:22;17.65;;;15.70;;
77581;SDS011;66726;52.388;9.986;2023-02-15T03:54:53;16.50;;;14.77;;
77581;SDS011;66726;52.388;9.986;2023-02-15T03:57:22;17.02;;;14.88;;
77581;SDS011;66726;52.388;9.986;2023-02-15T04:00:12;17.60;;;15.73;;
77581;SDS011;66726;52.388;9.986;2023-02-15T04:03:07;16.73;;;15.02;;
77581;SDS011;66726;52.388;9.986;2023-02-15T04:05:51;17.00;;;15.20;;
77581;SDS011;66726;52.388;9.986;2023-02-15T04:08:20;16.10;;;14.50;;
77581;SDS011;66726;52.388;9.986;2023-02-15T04:11:09;16.77;;;15.07;;
77581;SDS011;66726;52.388;9.986;2023-02-15T04:13:36;17.35;;;15.55;;
77581;SDS011;66726;52.388;9.986;2023-02-15T04:16:04;17.65;;;15.75;;
77581;SDS011;66726;52.388;9.986;2023-02-15T04:18:34;18.25;;;16.27;;
77581;SDS011;66726;52.388;9.986;2023-02-15T04:21:22;19.52;;;16.63;;
77581;SDS011;66726;52.388;9.986;2023-02-15T04:24:11;17.60;;;15.80;;
77581;SDS011;66726;52.388;9.986;2023-02-15T04:26:58;17.20;;;15.40;;
77581;SDS011;66726;52.388;9.986;2023-02-15T04:29:27;17.92;;;16.02;;
77581;SDS011;66726;52.388;9.986;2023-02-15T04:32:02;18.05;;;16.15;;
77581;SDS011;66726;52.388;9.986;2023-02-15T04:34:30;18.75;;;16.75;;
77581;SDS011;66726;52.388;9.986;2023-02-15T04:36:58;18.20;;;16.30;;
77581;SDS011;66726;52.388;9.986;2023-02-15T04:39:28;17.85;;;16.00;;
77581;SDS011;66726;52.388;9.986;2023-02-15T04:41:56;17.33;;;15.55;;
77581;SDS011;66726;52.388;9.986;2023-02-15T04:44:24;17.93;;;16.03;;
77581;SDS011;66726;52.388;9.986;2023-02-15T04:46:52;17.40;;;15.35;;
77581;SDS011;66726;52.388;9.986;2023-02-15T04:49:20;18.08;;;16.17;;
77581;SDS011;66726;52.388;9.986;2023-02-15T04:51:49;17.95;;;16.05;;
77581;SDS011;66726;52.388;9.986;2023-02-15T04:54:21;17.02;;;15.13;;
77581;SDS011;66726;52.388;9.986;2023-02-15T04:56:51;17.45;;;15.55;;
77581;SDS011;66726;52.388;9.986;2023-02-15T04:59:19;17.92;;;16.08;;
77581;SDS011;66726;52.388;9.986;2023-02-15T05:01:47;18.15;;;15.98;;
77581;SDS011;66726;52.388;9.986;2023-02-15T05:04:15;17.65;;;15.77;;
77581;SDS011;66726;52.388;9.986;2023-02-15T05:06:44;18.02;;;15.95;;
77581;SDS011;66726;52.388;9.986;2023-02-15T05:09:12;20.70;;;16.95;;
77581;SDS011;66726;52.388;9.986;2023-02-15T05:11:41;20.77;;;18.00;;
77581;SDS011;66726;52.388;9.986;2023-02-15T05:14:10;18.80;;;16.80;;
77581;SDS011;66726;52.388;9.986;2023-02-15T05:16:38;18.88;;;16.60;;
77581;SDS011;66726;52.388;9.986;2023-02-15T05:19:07;18.20;;;16.30;;
77581;SDS011;66726;52.388;9.986;2023-02-15T05:21:35;18.90;;;16.90;;
77581;SDS011;66726;52.388;9.986;2023-02-15T05:24:03;20.08;;;17.85;;
77581;SDS011;66726;52.388;9.986;2023-02-15T05:26:52;19.23;;;17.05;;
77581;SDS011;66726;52.388;9.986;2023-02-15T05:29:42;21.58;;;18.10;;
77581;SDS011;66726;52.388;9.986;2023-02-15T05:32:11;21.85;;;18.35;;
77581;SDS011;66726;52.388;9.986;2023-02-15T05:34:41;21.45;;;18.45;;
77581;SDS011;66726;52.388;9.986;2023-02-15T05:37:09;23.80;;;19.58;;
77581;SDS011;66726;52.388;9.986;2023-02-15T05:39:37;22.37;;;19.07;;
77581;SDS011;66726;52.388;9.986;2023-02-15T05:42:05;21.63;;;18.10;;
77581;SDS011;66726;52.388;9.986;2023-02-15T05:44:33;25.80;;;21.08;;
77581;SDS011;66726;52.388;9.986;2023-02-15T05:47:03;23.33;;;19.85;;
77581;SDS011;66726;52.388;9.986;2023-02-15T05:49:33;23.75;;;19.48;;
77581;SDS011;66726;52.388;9.986;2023-02-15T05:52:02;24.58;;;20.58;;
77581;SDS011;66726;52.388;9.986;2023-02-15T05:54:30;22.65;;;19.77;;
77581;SDS011;66726;52.388;9.986;2023-02-15T05:56:59;22.30;;;19.90;;
77581;SDS011;66726;52.388;9.986;2023-02-15T05:59:27;22.33;;;19.58;;
77581;SDS011;66726;52.388;9.986;2023-02-15T06:01:55;24.98;;;21.60;;
77581;SDS011;66726;52.388;9.986;2023-02-15T06:04:25;23.35;;;20.50;;
77581;SDS011;66726;52.388;9.986;2023-02-15T06:06:53;24.98;;;21.40;;
77581;SDS011;66726;52.388;9.986;2023-02-15T06:09:21;26.37;;;22.30;;
77581;SDS011;66726;52.388;9.986;2023-02-15T06:11:49;25.33;;;22.58;;
77581;SDS011;66726;52.388;9.986;2023-02-15T06:14:17;26.33;;;22.67;;
77581;SDS011;66726;52.388;9.986;2023-02-15T06:16:45;26.50;;;22.65;;
77581;SDS011;66726;52.388;9.986;2023-02-15T06:19:13;27.83;;;23.52;;
77581;SDS011;66726;52.388;9.986;2023-02-15T06:21:43;25.95;;;22.35;;
77581;SDS011;66726;52.388;9.986;2023-02-15T06:24:12;27.83;;;23.55;;
77581;SDS011;66726;52.388;9.986;2023-02-15T06:26:43;24.83;;;21.48;;
77581;SDS011;66726;52.388;9.986;2023-02-15T06:29:11;26.38;;;21.98;;
77581;SDS011;66726;52.388;9.986;2023-02-15T06:31:40;25.85;;;21.90;;
77581;SDS011;66726;52.388;9.986;2023-02-15T06:34:08;27.48;;;22.58;;
77581;SDS011;66726;52.388;9.986;2023-02-15T06:36:36;26.48;;;22.65;;
77581;SDS011;66726;52.388;9.986;2023-02-15T06:39:06;27.48;;;23.60;;
77581;SDS011;66726;52.388;9.986;2023-02-15T06:41:34;27.42;;;22.23;;
77581;SDS011;66726;52.388;9.986;2023-02-15T06:44:02;25.67;;;21.75;;
77581;SDS011;66726;52.388;9.986;2023-02-15T06:46:30;26.55;;;22.58;;
77581;SDS011;66726;52.388;9.986;2023-02-15T06:48:58;28.20;;;23.38;;
77581;SDS011;66726;52.388;9.986;2023-02-15T06:51:27;28.05;;;23.40;;
77581;SDS011;66726;52.388;9.986;2023-02-15T06:53:55;26.55;;;22.65;;
77581;SDS011;66726;52.388;9.986;2023-02-15T06:56:24;25.42;;;22.08;;
77581;SDS011;66726;52.388;9.986;2023-02-15T06:58:53;25.75;;;22.00;;
77581;SDS011;66726;52.388;9.986;2023-02-15T07:01:24;27.15;;;21.60;;
77581;SDS011;66726;52.388;9.986;2023-02-15T07:03:52;25.05;;;21.73;;
77581;SDS011;66726;52.388;9.986;2023-02-15T07:06:20;25.23;;;22.02;;
77581;SDS011;66726;52.388;9.986;2023-02-15T07:08:48;25.83;;;21.73;;
77581;SDS011;66726;52.388;9.986;2023-02-15T07:11:16;28.98;;;23.55;;
77581;SDS011;66726;52.388;9.986;2023-02-15T07:14:03;28.53;;;24.17;;
77581;SDS011;66726;52.388;9.986;2023-02-15T07:16:32;26.85;;;23.10;;
77581;SDS011;66726;52.388;9.986;2023-02-15T07:19:00;30.13;;;24.40;;
77581;SDS011;66726;52.388;9.986;2023-02-15T07:21:28;28.35;;;24.40;;
77581;SDS011;66726;52.388;9.986;2023-02-15T07:23:56;29.30;;;24.90;;
77581;SDS011;66726;52.388;9.986;2023-02-15T07:26:25;30.17;;;25.73;;
77581;SDS011;66726;52.388;9.986;2023-02-15T07:28:53;29.27;;;25.02;;
77581;SDS011;66726;52.388;9.986;2023-02-15T07:31:24;29.30;;;25.00;;
77581;SDS011;66726;52.388;9.986;2023-02-15T07:33:52;28.83;;;24.70;;
77581;SDS011;66726;52.388;9.986;2023-02-15T07:36:20;30.83;;;26.10;;
77581;SDS011;66726;52.388;9.986;2023-02-15T07:38:48;29.73;;;25.42;;
77581;SDS011;66726;52.388;9.986;2023-02-15T07:41:16;28.88;;;25.05;;
77581;SDS011;66726;52.388;9.986;2023-02-15T07:43:44;28.88;;;24.17;;
77581;SDS011;66726;52.388;9.986;2023-02-15T07:46:13;27.88;;;24.83;;
77581;SDS011;66726;52.388;9.986;2023-02-15T07:48:45;28.77;;;25.17;;
77581;SDS011;66726;52.388;9.986;2023-02-15T07:51:14;29.35;;;25.77;;
77581;SDS011;66726;52.388;9.986;2023-02-15T07:53:42;30.52;;;26.73;;
77581;SDS011;66726;52.388;9.986;2023-02-15T07:56:11;31.92;;;26.85;;
77581;SDS011;66726;52.388;9.986;2023-02-15T07:58:41;31.92;;;26.63;;
77581;SDS011;66726;52.388;9.986;2023-02-15T08:01:19;29.90;;;25.27;;
77581;SDS011;66726;52.388;9.986;2023-02-15T08:03:51;28.08;;;25.00;;
77581;SDS011;66726;52.388;9.986;2023-02-15T08:06:20;27.48;;;24.45;;
77581;SDS011;66726;52.388;9.986;2023-02-15T08:08:50;26.65;;;23.30;;
77581;SDS011;66726;52.388;9.986;2023-02-15T08:11:19;24.35;;;21.75;;
77581;SDS011;66726;52.388;9.986;2023-02-15T08:13:56;25.15;;;22.33;;
77581;SDS011;66726;52.388;9.986;2023-02-15T08:16:27;24.27;;;21.67;;
77581;SDS011;66726;52.388;9.986;2023-02-15T08:19:00;27.17;;;23.52;;
77581;SDS011;66726;52.388;9.986;2023-02-15T08:21:31;24.35;;;21.75;;
77581;SDS011;66726;52.388;9.986;2023-02-15T08:24:02;23.60;;;21.10;;
77581;SDS011;66726;52.388;9.986;2023-02-15T08:26:33;26.58;;;22.15;;
77581;SDS011;66726;52.388;9.986;2023-02-15T08:29:02;22.42;;;20.10;;
77581;SDS011;66726;52.388;9.986;2023-02-15T08:31:32;21.92;;;19.63;;
77581;SDS011;66726;52.388;9.986;2023-02-15T08:34:05;20.85;;;18.65;;
77581;SDS011;66726;52.388;9.986;2023-02-15T08:36:33;21.80;;;19.50;;
77581;SDS011;66726;52.388;9.986;2023-02-15T08:39:03;23.17;;;20.08;;
77581;SDS011;66726;52.388;9.986;2023-02-15T08:41:33;23.83;;;19.92;;
77581;SDS011;66726;52.388;9.986;2023-02-15T08:44:04;23.05;;;20.55;;
77581;SDS011;66726;52.388;9.986;2023-02-15T08:46:34;23.60;;;19.83;;
77581;SDS011;66726;52.388;9.986;2023-02-15T08:49:06;22.88;;;19.17;;
77581;SDS011;66726;52.388;9.986;2023-02-15T08:51:37;23.98;;;18.95;;
77581;SDS011;66726;52.388;9.986;2023-02-15T08:54:07;20.60;;;18.00;;
77581;SDS011;66726;52.388;9.986;2023-02-15T08:56:40;20.70;;;18.13;;
77581;SDS011;66726;52.388;9.986;2023-02-15T08:59:11;22.02;;;18.45;;
77581;SDS011;66726;52.388;9.986;2023-02-15T09:01:43;18.67;;;16.67;;
77581;SDS011;66726;52.388;9.986;2023-02-15T09:04:13;18.27;;;16.38;;
77581;SDS011;66726;52.388;9.986;2023-02-15T09:06:42;18.52;;;16.60;;
77581;SDS011;66726;52.388;9.986;2023-02-15T09:09:14;20.80;;;17.00;;
77581;SDS011;66726;52.388;9.986;2023-02-15T09:11:43;18.70;;;16.73;;
77581;SDS011;66726;52.388;9.986;2023-02-15T09:14:14;18.00;;;16.10;;
77581;SDS011;66726;52.388;9.986;2023-02-15T09:16:46;18.38;;;16.40;;
77581;SDS011;66726;52.388;9.986;2023-02-15T09:19:20;19.17;;;17.17;;
77581;SDS011;66726;52.388;9.986;2023-02-15T09:21:49;19.50;;;16.30;;
77581;SDS011;66726;52.388;9.986;2023-02-15T09:24:17;17.92;;;16.05;;
77581;SDS011;66726;52.388;9.986;2023-02-15T09:26:46;17.93;;;16.03;;
77581;SDS011;66726;52.388;9.986;2023-02-15T09:29:16;18.98;;;16.98;;
77581;SDS011;66726;52.388;9.986;2023-02-15T09:31:46;19.58;;;16.70;;
77581;SDS011;66726;52.388;9.986;2023-02-15T09:34:17;17.38;;;15.60;;
77581;SDS011;66726;52.388;9.986;2023-02-15T09:36:49;16.95;;;15.15;;
77581;SDS011;66726;52.388;9.986;2023-02-15T09:39:18;16.60;;;14.73;;
77581;SDS011;66726;52.388;9.986;2023-02-15T09:45:22;16.50;;;14.80;;
77581;SDS011;66726;52.388;9.986;2023-02-15T09:48:23;16.30;;;14.55;;
77581;SDS011;66726;52.388;9.986;2023-02-15T09:54:18;16.50;;;14.90;;
77581;SDS011;66726;52.388;9.986;2023-02-15T09:57:07;17.00;;;15.30;;
77581;SDS011;66726;52.388;9.986;2023-02-15T09:59:49;15.60;;;14.00;;
77581;SDS011;66726;52.388;9.986;2023-02-15T10:02:34;15.73;;;14.10;;
77581;SDS011;66726;52.388;9.986;2023-02-15T10:05:23;16.67;;;14.70;;
77581;SDS011;66726;52.388;9.986;2023-02-15T10:08:10;16.50;;;14.68;;
77581;SDS011;66726;52.388;9.986;2023-02-15T10:11:14;15.70;;;14.00;;
77581;SDS011;66726;52.388;9.986;2023-02-15T10:17:26;15.05;;;13.55;;
77581;SDS011;66726;52.388;9.986;2023-02-15T10:20:16;14.57;;;13.07;;
77581;SDS011;66726;52.388;9.986;2023-02-15T10:23:03;14.93;;;13.43;;
77581;SDS011;66726;52.388;9.986;2023-02-15T10:26:00;14.90;;;13.40;;
77581;SDS011;66726;52.388;9.986;2023-02-15T10:28:42;15.10;;;13.60;;
77581;SDS011;66726;52.388;9.986;2023-02-15T10:31:19;14.68;;;13.07;;
77581;SDS011;66726;52.388;9.986;2023-02-15T10:33:59;14.95;;;13.45;;
77581;SDS011;66726;52.388;9.986;2023-02-15T10:39:51;14.93;;;13.48;;
77581;SDS011;66726;52.388;9.986;2023-02-15T10:42:38;14.15;;;12.75;;
77581;SDS011;66726;52.388;9.986;2023-02-15T10:45:29;14.85;;;13.25;;
77581;SDS011;66726;52.388;9.986;2023-02-15T10:48:13;14.25;;;12.60;;
77581;SDS011;66726;52.388;9.986;2023-02-15T10:51:19;14.23;;;12.45;;
77581;SDS011;66726;52.388;9.986;2023-02-15T10:54:05;13.70;;;12.35;;
77581;SDS011;66726;52.388;9.986;2023-02-15T10:56:47;13.48;;;12.13;;
77581;SDS011;66726;52.388;9.986;2023-02-15T10:59:31;14.38;;;12.88;;
77581;SDS011;66726;52.388;9.986;2023-02-15T11:02:20;14.95;;;13.45;;
77581;SDS011;66726;52.388;9.986;2023-02-15T11:05:14;14.20;;;12.77;;
77581;SDS011;66726;52.388;9.986;2023-02-15T11:08:09;14.35;;;12.85;;
77581;SDS011;66726;52.388;9.986;2023-02-15T11:10:39;14.30;;;12.80;;
77581;SDS011;66726;52.388;9.986;2023-02-15T11:13:16;13.80;;;12.50;;
77581;SDS011;66726;52.388;9.986;2023-02-15T11:15:48;13.70;;;12.35;;
77581;SDS011;66726;52.388;9.986;2023-02-15T11:18:21;14.00;;;12.60;;
77581;SDS011;66726;52.388;9.986;2023-02-15T11:21:01;13.55;;;12.25;;
77581;SDS011;66726;52.388;9.986;2023-02-15T11:23:39;12.88;;;11.57;;
77581;SDS011;66726;52.388;9.986;2023-02-15T11:26:13;12.43;;;11.23;;
77581;SDS011;66726;52.388;9.986;2023-02-15T11:28:49;13.13;;;11.83;;
77581;SDS011;66726;52.388;9.986;2023-02-15T11:31:25;13.43;;;12.13;;
77581;SDS011;66726;52.388;9.986;2023-02-15T11:34:03;13.63;;;12.32;;
77581;SDS011;66726;52.388;9.986;2023-02-15T11:36:43;14.00;;;12.70;;
77581;SDS011;66726;52.388;9.986;2023-02-15T11:39:14;12.98;;;11.68;;
77581;SDS011;66726;52.388;9.986;2023-02-15T11:41:46;13.15;;;11.85;;
77581;SDS011;66726;52.388;9.986;2023-02-15T11:44:23;13.50;;;12.20;;
77581;SDS011;66726;52.388;9.986;2023-02-15T11:46:59;13.77;;;12.38;;
77581;SDS011;66726;52.388;9.986;2023-02-15T11:49:29;13.73;;;12.40;;
77581;SDS011;66726;52.388;9.986;2023-02-15T11:52:00;13.48;;;12.18;;
77581;SDS011;66726;52.388;9.986;2023-02-15T11:54:34;13.68;;;12.38;;
77581;SDS011;66726;52.388;9.986;2023-02-15T11:57:11;14.82;;;13.23;;
77581;SDS011;66726;52.388;9.986;2023-02-15T11:59:50;14.48;;;12.98;;
77581;SDS011;66726;52.388;9.986;2023-02-15T12:02:25;13.73;;;12.32;;
77581;SDS011;66726;52.388;9.986;2023-02-15T12:04:56;14.60;;;13.20;;
77581;SDS011;66726;52.388;9.986;2023-02-15T12:07:30;14.15;;;12.75;;
77581;SDS011;66726;52.388;9.986;2023-02-15T12:10:10;14.63;;;13.00;;
77581;SDS011;66726;52.388;9.986;2023-02-15T12:12:46;14.73;;;13.33;;
77581;SDS011;66726;52.388;9.986;2023-02-15T12:15:16;14.43;;;13.02;;
77581;SDS011;66726;52.388;9.986;2023-02-15T12:18:01;13.85;;;12.55;;
77581;SDS011;66726;52.388;9.986;2023-02-15T12:20:30;14.43;;;13.02;;
77581;SDS011;66726;52.388;9.986;2023-02-15T12:23:01;14.50;;;13.10;;
77581;SDS011;66726;52.388;9.986;2023-02-15T12:25:35;14.38;;;13.00;;
77581;SDS011;66726;52.388;9.986;2023-02-15T12:28:16;14.93;;;13.43;;
77581;SDS011;66726;52.388;9.986;2023-02-15T12:30:55;14.43;;;12.97;;
77581;SDS011;66726;52.388;9.986;2023-02-15T12:33:26;14.43;;;12.97;;
77581;SDS011;66726;52.388;9.986;2023-02-15T12:35:59;14.60;;;13.20;;
77581;SDS011;66726;52.388;9.986;2023-02-15T12:38:31;15.10;;;13.50;;
77581;SDS011;66726;52.388;9.986;2023-02-15T12:41:01;14.65;;;13.25;;
77581;SDS011;66726;52.388;9.986;2023-02-15T12:43:32;14.82;;;13.32;;
77581;SDS011;66726;52.388;9.986;2023-02-15T12:46:22;15.50;;;14.00;;
77581;SDS011;66726;52.388;9.986;2023-02-15T12:49:06;14.68;;;13.27;;
77581;SDS011;66726;52.388;9.986;2023-02-15T12:51:46;14.52;;;13.13;;
77581;SDS011;66726;52.388;9.986;2023-02-15T12:54:21;14.50;;;13.10;;
77581;SDS011;66726;52.388;9.986;2023-02-15T12:56:58;14.43;;;13.02;;
77581;SDS011;66726;52.388;9.986;2023-02-15T12:59:44;13.68;;;12.38;;
77581;SDS011;66726;52.388;9.986;2023-02-15T13:02:20;15.07;;;13.00;;
77581;SDS011;66726;52.388;9.986;2023-02-15T13:04:55;14.10;;;12.70;;
77581;SDS011;66726;52.388;9.986;2023-02-15T13:07:31;14.15;;;12.65;;
77581;SDS011;66726;52.388;9.986;2023-02-15T13:10:00;14.25;;;12.75;;
77581;SDS011;66726;52.388;9.986;2023-02-15T13:12:28;14.63;;;13.20;;
77581;SDS011;66726;52.388;9.986;2023-02-15T13:14:59;14.65;;;12.90;;
77581;SDS011;66726;52.388;9.986;2023-02-15T13:17:32;13.88;;;12.57;;
77581;SDS011;66726;52.388;9.986;2023-02-15T13:20:02;14.00;;;12.60;;
77581;SDS011;66726;52.388;9.986;2023-02-15T13:22:37;14.38;;;12.88;;
77581;SDS011;66726;52.388;9.986;2023-02-15T13:25:11;14.27;;;12.88;;
77581;SDS011;66726;52.388;9.986;2023-02-15T13:27:48;14.20;;;12.80;;
77581;SDS011;66726;52.388;9.986;2023-02-15T13:30:23;14.27;;;12.80;;
77581;SDS011;66726;52.388;9.986;2023-02-15T13:32:57;14.77;;;13.27;;
77581;SDS011;66726;52.388;9.986;2023-02-15T13:35:34;14.20;;;12.80;;
77581;SDS011;66726;52.388;9.986;2023-02-15T13:38:18;14.13;;;12.73;;
77581;SDS011;66726;52.388;9.986;2023-02-15T13:41:10;14.35;;;12.95;;
77581;SDS011;66726;52.388;9.986;2023-02-15T13:43:47;13.87;;;12.40;;
77581;SDS011;66726;52.388;9.986;2023-02-15T13:46:28;14.82;;;13.32;;
77581;SDS011;66726;52.388;9.986;2023-02-15T13:52:23;14.77;;;13.32;;
77581;SDS011;66726;52.388;9.986;2023-02-15T13:54:59;14.75;;;13.35;;
77581;SDS011;66726;52.388;9.986;2023-02-15T13:58:06;14.60;;;13.20;;
77581;SDS011;66726;52.388;9.986;2023-02-15T14:00:56;14.85;;;13.40;;
77581;SDS011;66726;52.388;9.986;2023-02-15T14:03:48;14.88;;;13.38;;
77581;SDS011;66726;52.388;9.986;2023-02-15T14:06:40;14.32;;;12.95;;
77581;SDS011;66726;52.388;9.986;2023-02-15T14:09:43;14.50;;;13.10;;
77581;SDS011;66726;52.388;9.986;2023-02-15T14:12:32;15.23;;;13.80;;
77581;SDS011;66726;52.388;9.986;2023-02-15T14:15:22;14.80;;;13.43;;
77581;SDS011;66726;52.388;9.986;2023-02-15T14:18:03;15.27;;;13.73;;
77581;SDS011;66726;52.388;9.986;2023-02-15T14:20:46;14.73;;;13.32;;
77581;SDS011;66726;52.388;9.986;2023-02-15T14:23:35;15.63;;;13.95;;
77581;SDS011;66726;52.388;9.986;2023-02-15T14:26:20;15.32;;;13.82;;
77581;SDS011;66726;52.388;9.986;2023-02-15T14:29:01;15.40;;;13.90;;
77581;SDS011;66726;52.388;9.986;2023-02-15T14:31:53;18.92;;;14.25;;
77581;SDS011;66726;52.388;9.986;2023-02-15T14:34:27;15.60;;;14.00;;
77581;SDS011;66726;52.388;9.986;2023-02-15T14:37:09;15.50;;;13.82;;
77581;SDS011;66726;52.388;9.986;2023-02-15T14:39:47;15.65;;;13.95;;
77581;SDS011;66726;52.388;9.986;2023-02-15T14:42:45;15.52;;;13.93;;
77581;SDS011;66726;52.388;9.986;2023-02-15T14:45:25;15.57;;;14.07;;
77581;SDS011;66726;52.388;9.986;2023-02-15T14:48:04;14.70;;;13.25;;
77581;SDS011;66726;52.388;9.986;2023-02-15T14:50:43;15.25;;;13.75;;
77581;SDS011;66726;52.388;9.986;2023-02-15T14:53:24;14.93;;;13.48;;
77581;SDS011;66726;52.388;9.986;2023-02-15T14:56:12;14.73;;;13.32;;
77581;SDS011;66726;52.388;9.986;2023-02-15T15:01:51;14.63;;;13.13;;
77581;SDS011;66726;52.388;9.986;2023-02-15T15:04:26;15.88;;;14.20;;
77581;SDS011;66726;52.388;9.986;2023-02-15T15:07:02;16.10;;;13.93;;
77581;SDS011;66726;52.388;9.986;2023-02-15T15:09:42;14.85;;;13.40;;
77581;SDS011;66726;52.388;9.986;2023-02-15T15:15:09;15.48;;;13.98;;
77581;SDS011;66726;52.388;9.986;2023-02-15T15:17:57;15.68;;;14.18;;
77581;SDS011;66726;52.388;9.986;2023-02-15T15:20:37;15.83;;;14.23;;
77581;SDS011;66726;52.388;9.986;2023-02-15T15:23:36;15.20;;;13.77;;
77581;SDS011;66726;52.388;9.986;2023-02-15T15:29:08;15.60;;;14.10;;
77581;SDS011;66726;52.388;9.986;2023-02-15T15:31:37;16.17;;;14.50;;
77581;SDS011;66726;52.388;9.986;2023-02-15T15:34:27;15.98;;;14.30;;
77581;SDS011;66726;52.388;9.986;2023-02-15T15:40:33;16.60;;;15.00;;
77581;SDS011;66726;52.388;9.986;2023-02-15T15:46:42;16.58;;;14.98;;